This is the latest recevied weather packets stored in our database for station/object AC1IX. If no packets are shown the sender has not sent any weather packets the latest 10 day(s).
| Time | Temp. | Humidity | Pressure | Rain* | Wind** | Luminosity | Snow |
|---|---|---|---|---|---|---|---|
| 1777645773 | 9.44° C | 67% | 1012.4 hPa | 0 mm | - | 194 W/m² | - |
| 1777645471 | 9.44° C | 64% | 1012.5 hPa | 0 mm | - | 153 W/m² | - |
| 1777645167 | 10° C | 62% | 1012.2 hPa | 0 mm | - | 398 W/m² | - |
| 1777644863 | 10.56° C | 58% | 1012.1 hPa | 0 mm | - | 161 W/m² | - |
| 1777644561 | 10° C | 65% | 1012.1 hPa | 0 mm | - | 819 W/m² | - |
| 1777644256 | 10.56° C | 62% | 1012.2 hPa | 0 mm | - | 824 W/m² | - |
| 1777643953 | 10.56° C | 62% | 1012.1 hPa | 0 mm | - | 749 W/m² | - |
| 1777643651 | 9.44° C | 66% | 1012.3 hPa | 0 mm | - | 727 W/m² | - |
| 1777643348 | 8.89° C | 68% | 1012.3 hPa | 0 mm | - | 752 W/m² | - |
| 1777643044 | 8.89° C | 69% | 1012.2 hPa | 0 mm | - | 172 W/m² | - |
| 1777642741 | 8.89° C | 67% | 1012.2 hPa | 0 mm | - | 70 W/m² | - |
| 1777642438 | 10° C | 67% | 1012.3 hPa | 0 mm | - | 781 W/m² | - |
| 1777642134 | 9.44° C | 74% | 1012.2 hPa | 0 mm | - | 756 W/m² | - |
| 1777641830 | 9.44° C | 69% | 1012.5 hPa | 0 mm | - | 649 W/m² | - |
| 1777641526 | 9.44° C | 70% | 1012.3 hPa | 0 mm | - | 620 W/m² | - |
| 1777641221 | 8.89° C | 74% | 1012.4 hPa | 0 mm | - | 580 W/m² | - |
| 1777640918 | 8.33° C | 73% | 1012.3 hPa | 0 mm | - | 613 W/m² | - |
| 1777640615 | 7.78° C | 75% | 1012.5 hPa | 0 mm | - | 516 W/m² | - |
| 1777640311 | 7.78° C | 77% | 1012.6 hPa | 0 mm | - | 518 W/m² | - |
| 1777640007 | 7.22° C | 80% | 1012.4 hPa | 0 mm | - | 384 W/m² | - |
| 1777639704 | 6.67° C | 82% | 1012.4 hPa | 0 mm | - | 291 W/m² | - |
| 1777639402 | 6.67° C | 82% | 1012.5 hPa | 0 mm | - | 261 W/m² | - |
| 1777639102 | 6.11° C | 85% | 1012.5 hPa | 0 mm | - | 365 W/m² | - |
| 1777638801 | 5° C | 89% | 1012.6 hPa | 0 mm | - | 134 W/m² | - |
| 1777638501 | 5° C | 88% | 1012.4 hPa | 0 mm | - | 49 W/m² | - |
* Rain latest hour (hover to see other rain measurements)
** Current wind speed in m/s (hover to see current wind gust speed)